Time;durP1;ratioP1;P1;durP2;ratioP2;P2;SDS_P1;SDS_P2;PMS_P1;PMS_P2;Temp;Humidity;BMP_temperature;BMP_pressure;BME280_temperature;BME280_humidity;BME280_pressure;Samples;Min_cycle;Max_cycle;Signal;HPM_P1;HPM_P2
2022/05/10 00:00:56;;;;;;;6.53;5.93;;;19.10;99.90;;;;;;5065994;28;20457;-81
2022/05/10 00:03:28;;;;;;;6.23;5.57;;;19.00;99.90;;;;;;5070410;28;20501;-80
2022/05/10 00:05:57;;;;;;;6.10;5.60;;;18.90;99.90;;;;;;5067078;28;20440;-79
2022/05/10 00:08:25;;;;;;;6.73;5.67;;;18.90;99.90;;;;;;5067915;28;20804;-79
2022/05/10 00:10:54;;;;;;;7.47;6.77;;;18.90;99.90;;;;;;5068294;28;20451;-79
2022/05/10 00:13:23;;;;;;;6.53;6.03;;;18.90;99.90;;;;;;5063290;28;20480;-80
2022/05/10 00:15:53;;;;;;;5.20;4.70;;;19.00;99.90;;;;;;5067117;28;20809;-80
2022/05/10 00:18:23;;;;;;;6.50;5.90;;;18.90;99.90;;;;;;5065600;28;20548;-79
2022/05/10 00:20:52;;;;;;;7.47;6.17;;;18.90;99.90;;;;;;5063671;28;20946;-81
2022/05/10 00:23:20;;;;;;;6.60;5.80;;;18.90;99.90;;;;;;5065055;28;20482;-80
2022/05/10 00:25:48;;;;;;;6.70;6.00;;;18.80;99.90;;;;;;5064253;28;20453;-81
2022/05/10 00:28:17;;;;;;;6.30;5.70;;;18.80;99.90;;;;;;5066111;28;20478;-80
2022/05/10 00:30:45;;;;;;;6.30;5.70;;;18.80;99.90;;;;;;5065139;28;20462;-80
2022/05/10 00:33:20;;;;;;;6.13;5.63;;;18.80;99.90;;;;;;5065188;28;20547;-80
2022/05/10 00:35:48;;;;;;;7.17;6.50;;;18.70;99.90;;;;;;5065924;28;20456;-80
2022/05/10 00:38:17;;;;;;;7.63;6.00;;;18.60;99.90;;;;;;5064198;28;20442;-80
2022/05/10 00:40:45;;;;;;;6.97;6.40;;;18.60;99.90;;;;;;5066908;28;20523;-81
2022/05/10 00:43:24;;;;;;;6.17;5.57;;;18.50;99.90;;;;;;5065254;28;20504;-79
2022/05/10 00:45:58;;;;;;;6.17;5.63;;;18.60;99.90;;;;;;5064816;28;20465;-79
2022/05/10 00:48:33;;;;;;;6.57;5.87;;;18.50;99.90;;;;;;5063109;28;20985;-80
2022/05/10 00:51:09;;;;;;;7.27;5.67;;;18.40;99.90;;;;;;5065430;28;20457;-78
2022/05/10 00:53:50;;;;;;;6.20;5.70;;;18.40;99.90;;;;;;5064594;28;20477;-81
2022/05/10 00:56:27;;;;;;;7.13;6.50;;;18.50;99.90;;;;;;5065663;28;20454;-78
2022/05/10 00:59:00;;;;;;;7.37;6.63;;;18.50;99.90;;;;;;5062459;28;20559;-79
2022/05/10 01:01:33;;;;;;;8.50;6.07;;;18.50;99.90;;;;;;5063734;28;20541;-81
2022/05/10 01:04:12;;;;;;;7.07;6.37;;;18.40;99.90;;;;;;5064736;28;20486;-78
2022/05/10 01:06:47;;;;;;;7.20;6.60;;;18.30;99.90;;;;;;5067224;28;20454;-80
2022/05/10 01:09:21;;;;;;;6.07;5.47;;;18.30;99.90;;;;;;5066281;28;20438;-80
2022/05/10 01:11:54;;;;;;;6.63;6.03;;;18.40;99.90;;;;;;5069629;28;20946;-80
2022/05/10 01:14:29;;;;;;;6.33;5.80;;;18.30;99.90;;;;;;5066926;28;21024;-80
2022/05/10 01:16:57;;;;;;;6.63;6.03;;;18.30;99.90;;;;;;5066919;28;20761;-79
2022/05/10 01:19:27;;;;;;;6.30;5.70;;;18.30;99.90;;;;;;5065941;28;20455;-80
2022/05/10 01:22:10;;;;;;;7.27;6.57;;;18.30;99.90;;;;;;5061310;28;20465;-79
2022/05/10 01:24:50;;;;;;;6.30;5.70;;;18.20;99.90;;;;;;5065593;28;21988;-83
2022/05/10 01:27:33;;;;;;;6.53;5.93;;;18.10;99.90;;;;;;5069345;28;20465;-79
2022/05/10 01:30:07;;;;;;;7.03;6.33;;;18.10;99.90;;;;;;5069034;28;20446;-80
2022/05/10 01:35:34;;;;;;;7.23;6.53;;;18.20;99.90;;;;;;5098845;28;20476;-80
2022/05/10 01:38:08;;;;;;;6.30;5.70;;;18.20;99.90;;;;;;5067482;28;20452;-80
2022/05/10 01:40:39;;;;;;;6.70;6.20;;;18.20;99.90;;;;;;5065684;28;20439;-82
2022/05/10 01:43:13;;;;;;;6.27;5.67;;;18.20;99.90;;;;;;5067979;28;20466;-80
2022/05/10 01:45:49;;;;;;;7.30;6.60;;;18.20;99.90;;;;;;5062361;28;20454;-80
2022/05/10 01:48:20;;;;;;;6.10;5.50;;;18.10;99.90;;;;;;5065886;28;20451;-81
2022/05/10 01:50:55;;;;;;;5.90;5.40;;;18.10;99.90;;;;;;5068117;28;21082;-83
2022/05/10 01:53:31;;;;;;;5.87;5.37;;;18.10;99.90;;;;;;5071240;28;20539;-80
2022/05/10 01:56:03;;;;;;;6.80;6.00;;;18.10;99.90;;;;;;5064883;28;20469;-78
2022/05/10 01:58:34;;;;;;;5.67;5.17;;;18.10;99.90;;;;;;5064705;28;20499;-80
2022/05/10 02:01:06;;;;;;;5.90;5.40;;;18.10;99.90;;;;;;5067175;28;20453;-80
2022/05/10 02:03:39;;;;;;;7.00;6.30;;;18.00;99.90;;;;;;5065389;28;20477;-80
2022/05/10 02:06:14;;;;;;;6.27;5.77;;;18.00;99.90;;;;;;5065248;28;20480;-81
2022/05/10 02:08:48;;;;;;;6.23;5.70;;;18.00;99.90;;;;;;5067751;28;20588;-80
2022/05/10 02:11:18;;;;;;;7.50;5.70;;;18.00;99.90;;;;;;5066319;28;20548;-80
2022/05/10 02:13:52;;;;;;;6.63;5.97;;;18.00;99.90;;;;;;5065126;28;20540;-80
2022/05/10 02:16:26;;;;;;;6.53;5.93;;;17.90;99.90;;;;;;5063255;28;21053;-79
2022/05/10 02:18:59;;;;;;;6.50;5.90;;;17.80;99.90;;;;;;5060179;28;20970;-78
2022/05/10 02:21:32;;;;;;;7.47;6.73;;;17.80;99.90;;;;;;5066833;28;20446;-79
2022/05/10 02:24:08;;;;;;;7.00;6.30;;;17.80;99.90;;;;;;5065561;28;21284;-80
2022/05/10 02:26:41;;;;;;;6.00;5.50;;;17.80;99.90;;;;;;5063499;28;20451;-80
2022/05/10 02:29:16;;;;;;;5.67;5.17;;;17.80;99.90;;;;;;5063030;28;20448;-79
2022/05/10 02:34:39;;;;;;;6.17;5.60;;;17.80;99.90;;;;;;5066904;28;20480;-80
2022/05/10 02:37:07;;;;;;;6.57;5.97;;;17.70;99.90;;;;;;5064482;28;20486;-79
2022/05/10 02:39:36;;;;;;;6.67;6.10;;;17.70;99.90;;;;;;5064323;28;20450;-80
2022/05/10 02:42:05;;;;;;;7.33;5.80;;;17.70;99.90;;;;;;5067725;28;20532;-79
2022/05/10 02:44:36;;;;;;;7.00;6.40;;;17.70;99.90;;;;;;5065618;28;20477;-81
2022/05/10 02:47:07;;;;;;;8.03;6.97;;;17.70;99.90;;;;;;5070730;28;20503;-78
2022/05/10 02:49:37;;;;;;;7.87;5.67;;;17.60;99.90;;;;;;5069350;28;20531;-80
2022/05/10 02:52:06;;;;;;;6.50;6.00;;;17.60;99.90;;;;;;5071282;28;20883;-80
2022/05/10 02:54:34;;;;;;;6.77;6.10;;;17.60;99.90;;;;;;5070969;28;20459;-79
2022/05/10 02:57:04;;;;;;;6.00;5.50;;;17.60;99.90;;;;;;5069875;28;20457;-78
2022/05/10 02:59:36;;;;;;;6.13;5.63;;;17.60;99.90;;;;;;5071791;28;20524;-79
2022/05/10 03:02:10;;;;;;;6.37;5.77;;;17.50;99.90;;;;;;5072145;28;21002;-79
2022/05/10 03:04:41;;;;;;;7.37;6.63;;;17.60;99.90;;;;;;5064489;28;20473;-80
2022/05/10 03:07:10;;;;;;;7.33;6.63;;;17.50;99.90;;;;;;5073568;28;20543;-79
2022/05/10 03:09:38;;;;;;;6.80;6.20;;;17.50;99.90;;;;;;5069610;28;20819;-81
2022/05/10 03:12:08;;;;;;;6.40;5.80;;;17.50;99.90;;;;;;5069203;28;20919;-81
2022/05/10 03:14:37;;;;;;;6.53;6.03;;;17.50;99.90;;;;;;5070330;28;20463;-81
2022/05/10 03:17:05;;;;;;;7.37;6.67;;;17.50;99.90;;;;;;5068923;28;20460;-80
2022/05/10 03:19:35;;;;;;;8.13;7.43;;;17.50;99.90;;;;;;5067539;28;20865;-81
2022/05/10 03:22:04;;;;;;;6.73;5.87;;;17.40;99.90;;;;;;5067631;28;20464;-81
2022/05/10 03:24:32;;;;;;;7.27;5.57;;;17.40;99.90;;;;;;5068808;28;20488;-79
2022/05/10 03:27:03;;;;;;;5.63;5.27;;;17.40;99.90;;;;;;5069039;28;20543;-80
2022/05/10 03:29:32;;;;;;;6.03;5.53;;;17.40;99.90;;;;;;5068850;28;20528;-80
2022/05/10 03:32:01;;;;;;;6.23;5.63;;;17.30;99.90;;;;;;5067003;28;20456;-79
2022/05/10 03:37:17;;;;;;;9.40;6.30;;;17.30;99.90;;;;;;5071588;28;20534;-79
2022/05/10 03:39:45;;;;;;;6.23;5.70;;;17.20;99.90;;;;;;5068978;28;20537;-80
2022/05/10 03:42:19;;;;;;;7.07;6.37;;;17.20;99.90;;;;;;5070605;28;20470;-81
2022/05/10 03:44:49;;;;;;;6.90;6.30;;;17.20;99.90;;;;;;5066542;28;20485;-79
2022/05/10 03:47:18;;;;;;;5.40;4.90;;;17.20;99.90;;;;;;5068314;28;20487;-80
2022/05/10 03:49:47;;;;;;;6.57;5.60;;;17.20;99.90;;;;;;5067463;28;20456;-78
2022/05/10 03:52:17;;;;;;;7.13;6.43;;;17.10;99.90;;;;;;5071736;28;20522;-80
2022/05/10 03:54:45;;;;;;;7.00;6.40;;;17.20;99.90;;;;;;5069716;28;20455;-79
2022/05/10 03:57:13;;;;;;;7.37;6.40;;;17.10;99.90;;;;;;5065190;28;20464;-79
2022/05/10 03:59:42;;;;;;;6.93;6.13;;;17.20;99.90;;;;;;5065291;28;20454;-80
2022/05/10 04:02:12;;;;;;;6.60;6.00;;;17.20;99.90;;;;;;5064343;28;20848;-79
2022/05/10 04:04:40;;;;;;;8.10;6.57;;;17.20;99.90;;;;;;5059511;28;20562;-78
2022/05/10 04:07:09;;;;;;;8.40;6.30;;;17.20;99.90;;;;;;5067457;28;20478;-79
2022/05/10 04:09:39;;;;;;;8.13;6.70;;;17.20;99.90;;;;;;5062053;28;20471;-81
2022/05/10 04:12:08;;;;;;;7.40;6.63;;;17.10;99.90;;;;;;5066340;28;20508;-79
2022/05/10 04:14:36;;;;;;;9.13;6.83;;;17.00;99.90;;;;;;5060899;28;20527;-77
2022/05/10 04:17:05;;;;;;;7.37;6.73;;;17.00;99.90;;;;;;5065641;28;20447;-76
2022/05/10 04:19:33;;;;;;;6.97;6.30;;;17.10;99.90;;;;;;5066845;28;20510;-78
2022/05/10 04:22:02;;;;;;;6.97;6.37;;;17.10;99.90;;;;;;5062624;28;20503;-77
2022/05/10 04:24:30;;;;;;;7.30;6.70;;;17.00;99.90;;;;;;5062475;28;20484;-78
2022/05/10 04:27:02;;;;;;;9.43;7.27;;;17.00;99.90;;;;;;5065212;28;20471;-77
2022/05/10 04:29:30;;;;;;;6.77;6.17;;;17.00;99.90;;;;;;5064449;28;20515;-77
2022/05/10 04:31:58;;;;;;;7.17;6.47;;;17.00;99.90;;;;;;5061846;28;20455;-80
2022/05/10 04:34:27;;;;;;;7.60;6.77;;;17.00;99.90;;;;;;5061760;28;20510;-80
2022/05/10 04:36:55;;;;;;;7.67;6.20;;;17.00;99.90;;;;;;5062634;28;20940;-78
2022/05/10 04:39:23;;;;;;;9.30;5.50;;;17.00;99.90;;;;;;5064400;28;20486;-79
2022/05/10 04:41:53;;;;;;;6.40;5.80;;;17.00;99.90;;;;;;5060885;28;20457;-79
2022/05/10 04:44:22;;;;;;;8.27;5.70;;;17.00;99.90;;;;;;5061168;28;20502;-78
2022/05/10 04:46:51;;;;;;;5.80;5.33;;;17.10;99.90;;;;;;5059493;28;20484;-79
2022/05/10 04:49:19;;;;;;;8.00;7.20;;;17.10;99.90;;;;;;5060200;28;20459;-79
2022/05/10 04:51:47;;;;;;;7.37;6.77;;;17.00;99.90;;;;;;5063308;28;20455;-79
2022/05/10 04:54:15;;;;;;;7.00;5.23;;;17.10;99.90;;;;;;5063743;28;20475;-79
2022/05/10 04:56:43;;;;;;;7.30;6.60;;;17.00;99.90;;;;;;5061291;28;21021;-80
2022/05/10 04:59:12;;;;;;;7.00;6.40;;;17.10;99.90;;;;;;5058626;28;20461;-79
2022/05/10 05:01:41;;;;;;;8.00;6.47;;;17.10;99.90;;;;;;5062361;28;20461;-79
2022/05/10 05:04:10;;;;;;;7.30;6.60;;;17.20;99.90;;;;;;5062582;28;21095;-78
2022/05/10 05:06:39;;;;;;;7.90;6.80;;;17.20;99.90;;;;;;5061147;28;20479;-80
2022/05/10 05:09:08;;;;;;;8.07;7.23;;;17.30;99.90;;;;;;5058904;28;20460;-80
2022/05/10 05:11:36;;;;;;;7.40;6.70;;;17.30;99.90;;;;;;5059157;28;20540;-79
2022/05/10 05:14:04;;;;;;;8.13;7.30;;;17.30;99.90;;;;;;5057202;28;20693;-80
2022/05/10 05:16:33;;;;;;;8.90;8.00;;;17.40;99.90;;;;;;5056863;28;20458;-80
2022/05/10 05:19:02;;;;;;;9.30;7.57;;;17.60;99.90;;;;;;5053721;28;20478;-79
2022/05/10 05:21:30;;;;;;;8.53;7.80;;;17.50;99.90;;;;;;5061272;28;20461;-80
2022/05/10 05:23:59;;;;;;;8.60;7.23;;;17.50;99.90;;;;;;5059110;28;20492;-80
2022/05/10 05:26:27;;;;;;;8.83;7.90;;;17.60;99.90;;;;;;5062340;28;20480;-81
2022/05/10 05:28:55;;;;;;;9.77;7.20;;;17.60;99.90;;;;;;5055809;28;20849;-79
2022/05/10 05:31:25;;;;;;;9.30;7.50;;;17.60;99.90;;;;;;5061438;28;20469;-80
2022/05/10 05:33:54;;;;;;;7.83;7.03;;;17.70;99.90;;;;;;5048395;28;20474;-78
2022/05/10 05:36:24;;;;;;;7.53;6.87;;;17.70;99.90;;;;;;5058111;28;20749;-78
2022/05/10 05:38:53;;;;;;;9.10;7.97;;;17.70;99.90;;;;;;5059620;28;20459;-79
2022/05/10 05:41:21;;;;;;;8.40;7.60;;;17.80;99.90;;;;;;5061510;28;20457;-77
2022/05/10 05:43:49;;;;;;;8.40;7.63;;;17.80;99.90;;;;;;5061440;28;20550;-77
2022/05/10 05:46:17;;;;;;;8.77;7.23;;;17.80;99.90;;;;;;5058266;28;20492;-79
2022/05/10 05:48:46;;;;;;;10.93;8.10;;;17.90;99.90;;;;;;5058206;28;20511;-79
2022/05/10 05:51:14;;;;;;;9.10;7.80;;;17.90;99.90;;;;;;5062003;28;20980;-80
2022/05/10 05:53:44;;;;;;;8.27;7.33;;;18.00;99.90;;;;;;5056275;28;20573;-78
2022/05/10 05:56:13;;;;;;;9.63;7.40;;;18.00;99.90;;;;;;5062608;28;20462;-79
2022/05/10 05:58:41;;;;;;;9.40;8.20;;;18.00;99.90;;;;;;5065065;28;20468;-78
2022/05/10 06:01:13;;;;;;;9.20;8.30;;;18.10;99.90;;;;;;5066007;28;20465;-79
2022/05/10 06:03:43;;;;;;;10.07;8.00;;;18.20;99.90;;;;;;5064876;28;20498;-78
2022/05/10 06:06:12;;;;;;;9.73;8.30;;;18.20;99.90;;;;;;5062354;28;20500;-78
2022/05/10 06:08:46;;;;;;;8.80;7.90;;;18.30;99.90;;;;;;5064373;28;21101;-78
2022/05/10 06:11:14;;;;;;;10.17;7.90;;;18.30;99.90;;;;;;5065625;28;20461;-78
2022/05/10 06:13:42;;;;;;;12.40;8.10;;;18.40;99.90;;;;;;5060459;28;20535;-78
2022/05/10 06:16:11;;;;;;;8.60;7.37;;;18.40;99.90;;;;;;5064263;28;20475;-77
2022/05/10 06:18:42;;;;;;;10.03;8.27;;;18.50;99.90;;;;;;5066972;28;20458;-79
2022/05/10 06:21:11;;;;;;;9.17;8.27;;;18.50;99.90;;;;;;5064252;28;20468;-78
2022/05/10 06:23:39;;;;;;;7.63;6.87;;;18.60;99.90;;;;;;5059847;28;20484;-81
2022/05/10 06:26:09;;;;;;;8.10;7.30;;;18.60;99.90;;;;;;5063533;28;20490;-79
2022/05/10 06:28:37;;;;;;;8.97;7.90;;;18.70;99.90;;;;;;5063202;28;20456;-79
2022/05/10 06:31:07;;;;;;;7.47;6.87;;;18.70;99.90;;;;;;5063354;28;20959;-79
2022/05/10 06:33:35;;;;;;;7.37;6.67;;;18.80;99.90;;;;;;5062323;28;20531;-78
2022/05/10 06:36:04;;;;;;;7.40;6.70;;;18.90;99.90;;;;;;5062762;28;20454;-79
2022/05/10 06:38:34;;;;;;;8.27;7.03;;;18.90;99.90;;;;;;5058719;28;20450;-76
2022/05/10 06:41:04;;;;;;;7.20;6.60;;;19.10;99.90;;;;;;5066722;28;20464;-80
2022/05/10 06:43:36;;;;;;;7.73;6.90;;;19.20;99.90;;;;;;5061939;28;20501;-79
2022/05/10 06:46:09;;;;;;;6.27;5.73;;;19.40;99.90;;;;;;5057560;28;20485;-79
2022/05/10 06:48:38;;;;;;;6.57;5.93;;;19.60;99.90;;;;;;5065594;28;20463;-78
2022/05/10 06:51:07;;;;;;;7.00;6.30;;;19.70;99.90;;;;;;5070240;28;20452;-78
2022/05/10 06:53:36;;;;;;;6.73;6.10;;;19.90;99.90;;;;;;5077253;28;20490;-78
2022/05/10 06:56:05;;;;;;;6.00;5.60;;;20.10;99.90;;;;;;5054898;28;20462;-79
2022/05/10 06:58:35;;;;;;;6.30;5.70;;;20.30;99.90;;;;;;5063060;28;20463;-79
2022/05/10 07:01:10;;;;;;;6.40;5.80;;;20.40;99.90;;;;;;5058739;28;20459;-79
2022/05/10 07:03:41;;;;;;;6.30;5.70;;;20.50;99.90;;;;;;5061794;28;20482;-80
2022/05/10 07:06:11;;;;;;;6.50;5.43;;;20.50;99.90;;;;;;5064562;28;20480;-79
2022/05/10 07:08:40;;;;;;;5.97;5.47;;;20.60;99.90;;;;;;5060480;28;20447;-79
2022/05/10 07:11:08;;;;;;;5.90;5.40;;;20.70;99.90;;;;;;5064476;28;20494;-79
2022/05/10 07:13:38;;;;;;;5.10;4.80;;;20.80;99.90;;;;;;5063101;28;21116;-78
2022/05/10 07:16:06;;;;;;;6.50;5.83;;;20.90;99.90;;;;;;5062202;28;20473;-78
2022/05/10 07:18:35;;;;;;;6.20;5.60;;;21.00;99.90;;;;;;5063332;28;20480;-78
2022/05/10 07:21:04;;;;;;;6.17;5.57;;;21.10;99.90;;;;;;5064709;28;20495;-77
2022/05/10 07:23:32;;;;;;;5.97;5.47;;;21.20;99.90;;;;;;5065173;28;20478;-78
2022/05/10 07:26:04;;;;;;;4.50;4.20;;;21.30;99.90;;;;;;5060403;28;20471;-79
2022/05/10 07:28:33;;;;;;;4.90;4.50;;;21.40;99.90;;;;;;5056773;28;20546;-80
2022/05/10 07:31:03;;;;;;;5.20;4.70;;;21.40;99.90;;;;;;5061768;28;20471;-79
2022/05/10 07:33:31;;;;;;;4.73;4.43;;;21.50;99.90;;;;;;5060051;28;20645;-78
2022/05/10 07:38:45;;;;;;;6.60;5.33;;;21.50;99.90;;;;;;5064280;28;20518;-80
2022/05/10 07:41:14;;;;;;;5.90;5.30;;;21.40;99.90;;;;;;5065588;28;20999;-79
2022/05/10 07:43:42;;;;;;;5.20;4.80;;;21.40;99.90;;;;;;5064407;28;20548;-80
2022/05/10 07:46:12;;;;;;;5.60;5.20;;;21.50;99.90;;;;;;5064971;28;20464;-79
2022/05/10 07:48:40;;;;;;;5.33;4.73;;;21.50;99.90;;;;;;5069793;28;20510;-80
2022/05/10 07:51:09;;;;;;;5.03;4.63;;;21.50;99.90;;;;;;5066668;28;20464;-79
2022/05/10 07:53:37;;;;;;;5.20;4.80;;;21.40;99.90;;;;;;5065359;28;20600;-79
2022/05/10 07:56:10;;;;;;;4.83;4.43;;;21.50;99.90;;;;;;5064176;28;20458;-79
2022/05/10 07:58:53;;;;;;;4.70;4.30;;;21.50;99.90;;;;;;5067422;28;20816;-83
2022/05/10 08:01:23;;;;;;;5.47;5.03;;;21.50;99.90;;;;;;5063255;28;20462;-81
2022/05/10 08:03:52;;;;;;;5.50;5.00;;;21.40;99.90;;;;;;5065874;28;20483;-81
2022/05/10 08:06:21;;;;;;;5.33;4.83;;;21.40;99.90;;;;;;5072956;28;20865;-82
2022/05/10 08:08:49;;;;;;;5.40;5.00;;;21.40;99.90;;;;;;5062995;28;20491;-81
2022/05/10 08:11:18;;;;;;;5.00;4.60;;;21.40;99.90;;;;;;5060493;28;20459;-81
2022/05/10 08:13:46;;;;;;;4.63;4.23;;;21.50;99.90;;;;;;5064873;28;20470;-80
2022/05/10 08:16:15;;;;;;;3.67;3.47;;;21.50;99.90;;;;;;5065619;28;20456;-81
2022/05/10 08:18:48;;;;;;;5.20;4.70;;;21.50;99.90;;;;;;5063632;28;20459;-82
2022/05/10 08:21:17;;;;;;;4.73;4.43;;;21.70;99.90;;;;;;5064493;28;20503;-82
2022/05/10 08:23:47;;;;;;;5.10;4.70;;;21.70;99.90;;;;;;5065695;28;21006;-81
2022/05/10 08:26:15;;;;;;;4.60;4.20;;;21.60;99.90;;;;;;5068466;28;20818;-82
2022/05/10 08:28:44;;;;;;;3.70;3.40;;;21.70;99.90;;;;;;5064898;28;22278;-81
2022/05/10 08:31:12;;;;;;;4.63;4.27;;;21.70;99.90;;;;;;5065317;28;20800;-81
2022/05/10 08:33:44;;;;;;;4.10;3.70;;;21.80;99.90;;;;;;5065623;28;20485;-80
2022/05/10 08:36:14;;;;;;;4.10;3.80;;;21.80;99.90;;;;;;5071168;28;20459;-80
2022/05/10 08:38:42;;;;;;;4.40;4.10;;;21.80;99.90;;;;;;5064453;28;20450;-80
2022/05/10 08:41:15;;;;;;;4.67;4.27;;;21.90;99.90;;;;;;5064171;28;20459;-81
2022/05/10 08:43:50;;;;;;;3.97;3.67;;;21.90;99.90;;;;;;5063764;28;20489;-81
2022/05/10 08:46:25;;;;;;;4.40;4.10;;;21.90;99.90;;;;;;5063475;28;20464;-81
2022/05/10 08:48:58;;;;;;;4.57;4.17;;;22.00;99.90;;;;;;5063230;28;20488;-81
2022/05/10 08:51:29;;;;;;;4.13;3.80;;;22.00;99.90;;;;;;5067233;28;20443;-81
2022/05/10 08:53:57;;;;;;;4.30;3.90;;;22.10;99.90;;;;;;5061476;28;20502;-80
2022/05/10 08:56:29;;;;;;;4.33;4.00;;;22.20;99.90;;;;;;5064062;28;20445;-81
2022/05/10 08:59:07;;;;;;;4.10;3.47;;;22.30;99.90;;;;;;5071132;28;20466;-80
2022/05/10 09:01:49;;;;;;;4.20;3.80;;;22.30;99.90;;;;;;5068278;28;20465;-80
2022/05/10 09:04:30;;;;;;;3.77;3.47;;;22.30;99.90;;;;;;5072906;28;20477;-81
2022/05/10 09:07:12;;;;;;;4.20;3.83;;;22.30;99.90;;;;;;5066046;28;20446;-82
2022/05/10 09:09:53;;;;;;;4.37;4.07;;;22.40;99.90;;;;;;5064662;28;20489;-81
2022/05/10 09:12:23;;;;;;;3.67;3.47;;;22.50;99.90;;;;;;5058502;28;20470;-82
2022/05/10 09:14:56;;;;;;;4.03;3.63;;;22.60;99.90;;;;;;5062478;28;20474;-81
2022/05/10 09:17:29;;;;;;;3.83;3.53;;;22.50;99.90;;;;;;5063980;28;20493;-82
2022/05/10 09:19:58;;;;;;;3.50;3.20;;;22.50;99.90;;;;;;5060434;28;20478;-81
2022/05/10 09:23:14;;;;;;;4.10;3.30;;;22.60;99.90;;;;;;5064784;28;20443;-81
2022/05/10 09:25:45;;;;;;;5.00;3.03;;;22.40;99.90;;;;;;5061205;28;20528;-81
2022/05/10 09:28:25;;;;;;;4.00;3.70;;;22.50;99.90;;;;;;5061457;28;20481;-81
2022/05/10 09:36:27;;;;;;;3.60;3.30;;;22.50;99.90;;;;;;5091796;28;21237;-81
2022/05/10 09:39:01;;;;;;;3.50;3.30;;;22.70;99.90;;;;;;5063733;28;20840;-81
2022/05/10 09:41:39;;;;;;;3.50;3.27;;;22.70;99.90;;;;;;5060027;28;20466;-81
2022/05/10 09:44:22;;;;;;;3.20;3.00;;;22.80;99.90;;;;;;5064282;28;20570;-81
2022/05/10 09:46:52;;;;;;;3.13;2.93;;;22.90;99.90;;;;;;5063271;28;20478;-81
2022/05/10 09:49:37;;;;;;;2.80;2.60;;;22.90;99.90;;;;;;5062953;28;20483;-81
2022/05/10 09:52:08;;;;;;;3.60;3.30;;;22.90;99.90;;;;;;5064502;28;20548;-81
2022/05/10 09:54:41;;;;;;;3.20;3.00;;;23.00;99.90;;;;;;5062773;28;20478;-82
2022/05/10 09:57:24;;;;;;;3.43;3.23;;;23.10;99.90;;;;;;5064829;28;20450;-81
2022/05/10 09:59:52;;;;;;;3.60;3.30;;;23.20;99.90;;;;;;5060688;28;20470;-81
2022/05/10 10:02:30;;;;;;;3.00;2.77;;;23.10;99.90;;;;;;5061629;28;20446;-81
2022/05/10 10:04:59;;;;;;;3.47;3.20;;;23.10;99.90;;;;;;5061685;28;20462;-81
2022/05/10 10:07:30;;;;;;;2.67;2.47;;;23.20;99.90;;;;;;5065681;28;20537;-81
2022/05/10 10:10:16;;;;;;;3.17;2.97;;;23.30;99.90;;;;;;5062238;28;20538;-79
2022/05/10 10:12:46;;;;;;;3.20;3.00;;;23.30;99.90;;;;;;5061983;28;20446;-80
2022/05/10 10:15:22;;;;;;;4.90;3.00;;;23.40;99.90;;;;;;5061900;28;20460;-82
2022/05/10 10:17:53;;;;;;;3.00;2.80;;;23.50;99.90;;;;;;5063065;28;21001;-80
2022/05/10 10:20:32;;;;;;;2.93;2.73;;;23.40;99.90;;;;;;5063050;28;20438;-80
2022/05/10 10:23:03;;;;;;;2.90;2.70;;;23.30;99.90;;;;;;5064314;28;20474;-81
2022/05/10 10:25:39;;;;;;;2.87;2.67;;;23.30;99.90;;;;;;5065266;28;20814;-80
2022/05/10 10:28:17;;;;;;;2.53;2.33;;;23.20;99.90;;;;;;5065899;28;21001;-81
2022/05/10 10:30:51;;;;;;;7.47;2.50;;;23.30;99.90;;;;;;5062772;28;20473;-81
2022/05/10 10:33:29;;;;;;;3.07;2.87;;;23.50;99.90;;;;;;5063388;28;20473;-81
2022/05/10 10:36:04;;;;;;;2.60;2.40;;;23.60;99.90;;;;;;5061978;28;20439;-80
2022/05/10 10:38:44;;;;;;;2.80;2.60;;;23.60;99.90;;;;;;5061859;28;20818;-81
2022/05/10 10:41:18;;;;;;;2.50;2.40;;;23.60;99.90;;;;;;5064346;28;20458;-81
2022/05/10 10:43:51;;;;;;;2.93;2.63;;;23.70;99.90;;;;;;5060320;28;20497;-80
2022/05/10 10:46:26;;;;;;;2.40;2.20;;;23.80;99.90;;;;;;5058337;28;20543;-81
2022/05/10 10:48:56;;;;;;;2.33;2.13;;;23.80;99.90;;;;;;5054461;28;20475;-82
2022/05/10 10:51:29;;;;;;;2.43;2.27;;;23.70;99.90;;;;;;5061330;28;20450;-81
2022/05/10 10:54:00;;;;;;;2.63;1.80;;;23.80;99.90;;;;;;5060959;28;20478;-79
2022/05/10 10:56:50;;;;;;;2.27;2.07;;;23.70;99.90;;;;;;5061567;28;20446;-80
2022/05/10 10:59:41;;;;;;;2.27;2.17;;;23.70;99.90;;;;;;5059111;28;20462;-81
2022/05/10 11:02:31;;;;;;;2.37;2.27;;;23.70;99.90;;;;;;5062183;28;20450;-81
2022/05/10 11:05:29;;;;;;;2.37;2.27;;;23.80;99.90;;;;;;5059874;28;20487;-81
2022/05/10 11:08:09;;;;;;;2.73;2.53;;;23.80;99.90;;;;;;5063618;28;20538;-79
2022/05/10 11:10:46;;;;;;;2.60;2.40;;;23.90;99.90;;;;;;5063556;28;20946;-81
2022/05/10 11:13:26;;;;;;;2.63;2.43;;;23.90;99.90;;;;;;5064381;28;20474;-81
2022/05/10 11:16:04;;;;;;;1.93;1.83;;;23.90;99.90;;;;;;5065630;28;20520;-83
2022/05/10 11:18:44;;;;;;;3.37;2.70;;;24.00;99.90;;;;;;5064158;28;20476;-81
2022/05/10 11:21:34;;;;;;;2.10;2.00;;;23.90;99.90;;;;;;5067113;28;20570;-81
2022/05/10 11:24:13;;;;;;;2.50;2.30;;;23.90;99.90;;;;;;5064142;28;21349;-81
2022/05/10 11:27:03;;;;;;;2.53;2.33;;;23.80;99.90;;;;;;5062423;28;20450;-81
2022/05/10 11:29:52;;;;;;;2.40;2.20;;;24.00;99.90;;;;;;5066316;28;20517;-81
2022/05/10 11:32:31;;;;;;;2.73;2.20;;;24.10;99.90;;;;;;5066803;28;20455;-81
2022/05/10 11:35:17;;;;;;;2.30;2.10;;;24.10;99.90;;;;;;5064860;28;20593;-81
2022/05/10 11:37:52;;;;;;;2.60;2.40;;;24.20;99.90;;;;;;5062505;28;20500;-80
2022/05/10 11:40:53;;;;;;;2.47;2.30;;;24.20;99.90;;;;;;5066089;28;20470;-81
2022/05/10 11:43:58;;;;;;;2.50;2.37;;;24.30;99.90;;;;;;5066356;28;20554;-80
2022/05/10 11:47:01;;;;;;;2.67;2.37;;;24.30;99.90;;;;;;5060461;28;21032;-81
2022/05/10 11:49:56;;;;;;;3.20;3.00;;;24.20;99.90;;;;;;5056934;28;20474;-81
2022/05/10 11:53:00;;;;;;;2.63;2.43;;;24.30;99.90;;;;;;5061794;28;20497;-81
2022/05/10 11:55:36;;;;;;;2.60;2.50;;;24.30;99.90;;;;;;5030887;28;20458;-81
2022/05/10 11:58:08;;;;;;;2.20;2.00;;;24.30;99.90;;;;;;5065027;28;21205;-81
2022/05/10 12:00:55;;;;;;;2.93;2.70;;;24.30;99.90;;;;;;5061732;28;20443;-81
2022/05/10 12:03:56;;;;;;;3.00;2.80;;;24.30;99.90;;;;;;5062881;28;20510;-81
2022/05/10 12:06:40;;;;;;;2.80;2.60;;;24.30;99.90;;;;;;5065017;28;20449;-80
2022/05/10 12:09:16;;;;;;;2.70;2.07;;;24.40;99.90;;;;;;5062485;28;20485;-80
2022/05/10 12:11:44;;;;;;;2.60;2.40;;;24.40;99.90;;;;;;5062898;28;20966;-81
2022/05/10 12:24:12;;;;;;;5.53;2.87;;;24.40;99.90;;;;;;5062032;28;20837;-81
2022/05/10 12:26:47;;;;;;;2.60;2.40;;;24.40;99.90;;;;;;5063492;28;20455;-80
2022/05/10 12:29:52;;;;;;;3.30;2.60;;;24.40;99.90;;;;;;5064724;28;20478;-81
2022/05/10 12:32:40;;;;;;;2.50;2.40;;;24.50;99.90;;;;;;5053037;28;20451;-81
2022/05/10 12:35:10;;;;;;;2.83;2.60;;;24.50;99.90;;;;;;5061540;28;20467;-81
2022/05/10 12:37:58;;;;;;;2.80;2.60;;;24.50;99.90;;;;;;5063958;28;21101;-80
2022/05/10 12:40:53;;;;;;;2.57;2.37;;;24.50;99.90;;;;;;5061362;28;20455;-80
2022/05/10 12:43:53;;;;;;;2.40;2.20;;;24.50;99.90;;;;;;5067113;28;20494;-80
2022/05/10 12:46:40;;;;;;;2.67;2.47;;;24.50;99.90;;;;;;5062772;28;20462;-80
2022/05/10 12:49:30;;;;;;;3.27;3.07;;;24.50;99.90;;;;;;5064694;28;20454;-81
2022/05/10 12:52:19;;;;;;;2.90;2.70;;;24.50;99.90;;;;;;5062161;28;20452;-81
2022/05/10 12:54:55;;;;;;;2.60;2.40;;;24.60;99.90;;;;;;5063414;28;20470;-82
2022/05/10 12:57:30;;;;;;;3.40;3.10;;;24.70;99.90;;;;;;5068818;28;20454;-81
2022/05/10 13:00:07;;;;;;;2.70;2.60;;;24.80;99.90;;;;;;5054751;28;20442;-81
2022/05/10 13:02:38;;;;;;;3.20;3.00;;;24.80;99.90;;;;;;5062153;28;20453;-81
2022/05/10 13:05:14;;;;;;;3.57;2.97;;;24.80;99.90;;;;;;5062979;28;20455;-81
2022/05/10 13:08:09;;;;;;;2.97;2.77;;;24.80;99.90;;;;;;5061541;28;20458;-80
2022/05/10 13:10:38;;;;;;;3.20;3.00;;;24.80;99.90;;;;;;5095014;28;20541;-79
2022/05/10 13:13:11;;;;;;;2.67;2.47;;;24.80;99.90;;;;;;5063040;28;20514;-81
2022/05/10 13:15:44;;;;;;;3.90;3.53;;;24.80;99.90;;;;;;5066911;28;20461;-80
2022/05/10 13:18:17;;;;;;;3.17;2.87;;;24.80;99.90;;;;;;5062017;28;20459;-81
2022/05/10 13:20:47;;;;;;;3.67;3.37;;;24.80;99.90;;;;;;5069656;28;20442;-79
2022/05/10 13:23:16;;;;;;;4.30;3.80;;;24.80;99.90;;;;;;5064861;28;20481;-80
2022/05/10 13:25:47;;;;;;;3.07;2.87;;;24.80;99.90;;;;;;5059773;28;21032;-81
2022/05/10 13:28:18;;;;;;;2.87;2.70;;;24.70;99.90;;;;;;5062437;28;20521;-81
2022/05/10 13:30:48;;;;;;;2.57;2.37;;;24.70;99.90;;;;;;5063760;28;20470;-80
2022/05/10 13:33:24;;;;;;;2.67;2.40;;;24.80;99.90;;;;;;5061004;28;20467;-80
2022/05/10 13:35:55;;;;;;;2.77;1.90;;;24.90;99.90;;;;;;5063806;28;20457;-81
2022/05/10 13:38:27;;;;;;;3.00;2.80;;;24.90;99.90;;;;;;5063283;28;20450;-81
2022/05/10 13:40:59;;;;;;;3.07;2.87;;;24.90;99.90;;;;;;5061253;28;20443;-81
2022/05/10 13:43:35;;;;;;;3.00;2.80;;;24.90;99.90;;;;;;5062657;28;20489;-81